createdAt,value
2022-11-24T00:01:07.226Z,99076.78
2022-11-24T00:03:34.486Z,99080.19
2022-11-24T00:06:15.160Z,99074.59
2022-11-24T00:08:44.453Z,99076.16
2022-11-24T00:11:14.235Z,99086.94
2022-11-24T00:13:41.695Z,99071.38
2022-11-24T00:16:15.900Z,99080.81
2022-11-24T00:18:45.735Z,99079.91
2022-11-24T00:21:13.715Z,99087.44
2022-11-24T00:23:41.084Z,99093.38
2022-11-24T00:26:17.330Z,99098.59
2022-11-24T00:28:45.192Z,99091.66
2022-11-24T00:31:39.116Z,99095.25
2022-11-24T00:34:10.189Z,99095.00
2022-11-24T00:36:37.257Z,99100.78
2022-11-24T00:39:07.167Z,99103.44
2022-11-24T00:41:35.010Z,99094.91
2022-11-24T00:44:02.006Z,99093.16
2022-11-24T00:46:29.312Z,99102.38
2022-11-24T00:48:56.816Z,99108.25
2022-11-24T00:51:30.239Z,99111.63
2022-11-24T00:54:01.291Z,99116.69
2022-11-24T00:56:29.806Z,99125.09
2022-11-24T00:58:56.730Z,99121.78
2022-11-24T01:01:26.379Z,99119.28
2022-11-24T01:03:54.681Z,99121.00
2022-11-24T01:06:24.805Z,99127.25
2022-11-24T01:08:51.822Z,99128.06
2022-11-24T01:11:27.661Z,99130.09
2022-11-24T01:13:57.825Z,99129.97
2022-11-24T01:16:35.435Z,99131.88
2022-11-24T01:19:03.931Z,99134.19
2022-11-24T01:21:30.706Z,99145.25
2022-11-24T01:23:57.967Z,99145.31
2022-11-24T01:26:24.832Z,99149.47
2022-11-24T01:28:56.169Z,99149.59
2022-11-24T01:31:24.051Z,99149.34
2022-11-24T01:33:51.028Z,99153.44
2022-11-24T01:36:18.321Z,99147.44
2022-11-24T01:38:45.128Z,99157.47
2022-11-24T01:41:15.563Z,99150.59
2022-11-24T01:43:43.438Z,99153.84
2022-11-24T01:46:35.270Z,99153.06
2022-11-24T01:49:14.591Z,99157.41
2022-11-24T01:51:50.553Z,99155.69
2022-11-24T01:54:31.027Z,99154.84
2022-11-24T01:57:03.701Z,99164.97
2022-11-24T01:59:31.033Z,99165.69
2022-11-24T02:01:57.988Z,99163.97
2022-11-24T02:04:29.854Z,99167.38
2022-11-24T02:06:58.762Z,99175.34
2022-11-24T02:09:46.986Z,99179.31
2022-11-24T02:12:13.774Z,99184.88
2022-11-24T02:14:43.010Z,99184.03
2022-11-24T02:17:09.878Z,99187.31
2022-11-24T02:20:20.569Z,99195.16
2022-11-24T02:23:19.113Z,99196.91
2022-11-24T02:26:10.204Z,99196.00
2022-11-24T02:28:37.690Z,99200.22
2022-11-24T02:31:05.833Z,99206.31
2022-11-24T02:33:34.551Z,99210.53
2022-11-24T02:36:01.378Z,99207.91
2022-11-24T02:38:33.447Z,99206.56
2022-11-24T02:41:11.291Z,99205.69
2022-11-24T02:43:46.905Z,99203.06
2022-11-24T02:46:13.745Z,99197.75
2022-11-24T02:48:40.635Z,99198.53
2022-11-24T02:51:07.559Z,99195.00
2022-11-24T02:53:34.419Z,99195.78
2022-11-24T02:56:01.247Z,99194.91
2022-11-24T02:58:28.131Z,99197.38
2022-11-24T03:00:55.220Z,99199.00
2022-11-24T03:03:22.245Z,99205.69
2022-11-24T03:05:49.203Z,99203.94
2022-11-24T03:08:16.281Z,99215.69
2022-11-24T03:10:43.475Z,99217.41
2022-11-24T03:13:10.627Z,99215.00
2022-11-24T03:15:37.618Z,99224.38
2022-11-24T03:18:04.480Z,99226.09
2022-11-24T03:20:31.309Z,99214.22
2022-11-24T03:22:58.128Z,99219.31
2022-11-24T03:25:25.022Z,99221.63
2022-11-24T03:27:51.800Z,99219.94
2022-11-24T03:30:18.631Z,99214.84
2022-11-24T03:32:45.532Z,99224.09
2022-11-24T03:35:12.326Z,99227.31
2022-11-24T03:37:39.178Z,99228.09
2022-11-24T03:40:06.731Z,99229.06
2022-11-24T03:42:33.512Z,99224.09
2022-11-24T03:45:16.753Z,99218.03
2022-11-24T03:47:51.330Z,99224.09
2022-11-24T03:50:18.216Z,99227.31
2022-11-24T03:52:44.963Z,99233.94
2022-11-24T03:55:11.763Z,99236.25
2022-11-24T03:57:39.375Z,99237.09
2022-11-24T04:00:06.974Z,99246.28
2022-11-24T04:02:33.846Z,99247.22
2022-11-24T04:05:00.696Z,99240.34
2022-11-24T04:07:27.486Z,99242.00
2022-11-24T04:09:54.355Z,99252.16
2022-11-24T04:12:39.560Z,99254.63
2022-11-24T04:15:06.944Z,99265.50
2022-11-24T04:17:33.743Z,99257.09
2022-11-24T04:20:00.500Z,99260.44
2022-11-24T04:22:27.395Z,99258.69
2022-11-24T04:24:54.131Z,99257.84
2022-11-24T04:27:20.899Z,99260.31
2022-11-24T04:29:47.707Z,99265.50
2022-11-24T04:32:14.527Z,99268.91
2022-11-24T04:34:41.315Z,99274.78
2022-11-24T04:37:08.134Z,99268.97
2022-11-24T04:39:35.126Z,99269.84
2022-11-24T04:42:02.068Z,99268.22
2022-11-24T04:44:28.927Z,99274.19
2022-11-24T04:46:55.824Z,99272.44
2022-11-24T04:49:22.742Z,99278.38
2022-11-24T04:51:49.750Z,99275.78
2022-11-24T04:54:16.752Z,99288.41
2022-11-24T04:56:44.096Z,99289.34
2022-11-24T04:59:15.117Z,99291.13
2022-11-24T05:01:46.409Z,99296.19
2022-11-24T05:04:15.115Z,99301.28
2022-11-24T05:06:42.044Z,99307.09
2022-11-24T05:09:13.585Z,99314.78
2022-11-24T05:11:42.135Z,99311.41
2022-11-24T05:14:09.023Z,99318.25
2022-11-24T05:16:36.027Z,99317.41
2022-11-24T05:19:02.819Z,99320.09
2022-11-24T05:21:29.532Z,99325.19
2022-11-24T05:23:56.313Z,99325.19
2022-11-24T05:26:23.277Z,99318.34
2022-11-24T05:28:50.023Z,99331.03
2022-11-24T05:31:16.856Z,99331.78
2022-11-24T05:33:43.683Z,99334.31
2022-11-24T05:36:30.491Z,99343.59
2022-11-24T05:38:57.411Z,99346.94
2022-11-24T05:41:24.148Z,99347.78
2022-11-24T05:43:51.062Z,99353.75
2022-11-24T05:46:17.976Z,99352.16
2022-11-24T05:48:44.788Z,99353.00
2022-11-24T05:51:11.590Z,99355.47
2022-11-24T05:53:38.281Z,99363.69
2022-11-24T05:56:05.330Z,99358.41
2022-11-24T05:58:32.183Z,99373.50
2022-11-24T06:00:58.957Z,99373.50
2022-11-24T06:03:25.654Z,99380.34
2022-11-24T06:05:52.445Z,99382.19
2022-11-24T06:08:19.263Z,99390.72
2022-11-24T06:10:45.962Z,99389.97
2022-11-24T06:13:12.674Z,99397.66
2022-11-24T06:15:40.809Z,99395.94
2022-11-24T06:18:07.656Z,99399.41
2022-11-24T06:20:34.672Z,99400.34
2022-11-24T06:23:01.590Z,99409.66
2022-11-24T06:25:29.426Z,99413.03
2022-11-24T06:27:56.229Z,99421.72
2022-11-24T06:30:23.266Z,99415.19
2022-11-24T06:32:54.815Z,99411.22
2022-11-24T06:35:21.667Z,99411.19
2022-11-24T06:37:48.401Z,99413.13
2022-11-24T06:40:15.146Z,99411.44
2022-11-24T06:42:41.923Z,99423.13
2022-11-24T06:45:09.799Z,99417.19
2022-11-24T06:47:37.048Z,99407.91
2022-11-24T06:50:04.451Z,99421.59
2022-11-24T06:52:31.227Z,99416.53
2022-11-24T06:54:57.960Z,99421.94
2022-11-24T06:57:24.789Z,99421.06
2022-11-24T06:59:51.603Z,99426.94
2022-11-24T07:02:18.312Z,99427.00
2022-11-24T07:04:45.101Z,99431.75
2022-11-24T07:07:12.749Z,99421.06
2022-11-24T07:09:39.564Z,99422.78
2022-11-24T07:12:06.714Z,99422.88
2022-11-24T07:14:33.810Z,99423.88
2022-11-24T07:17:02.514Z,99423.88
2022-11-24T07:19:29.390Z,99424.69
2022-11-24T07:21:56.569Z,99428.22
2022-11-24T07:24:23.410Z,99419.72
2022-11-24T07:26:50.215Z,99414.66
2022-11-24T07:29:16.938Z,99418.00
2022-11-24T07:31:43.996Z,99422.88
2022-11-24T07:34:10.763Z,99421.88
2022-11-24T07:36:37.481Z,99421.88
2022-11-24T07:39:06.958Z,99423.75
2022-11-24T07:41:33.745Z,99423.88
2022-11-24T07:44:00.481Z,99424.63
2022-11-24T07:46:27.320Z,99420.41
2022-11-24T07:48:54.074Z,99422.78
2022-11-24T07:51:20.826Z,99418.53
2022-11-24T07:53:47.571Z,99420.25
2022-11-24T07:56:14.401Z,99429.56
2022-11-24T07:58:41.192Z,99425.34
2022-11-24T08:01:16.342Z,99436.84
2022-11-24T08:03:44.119Z,99447.78
2022-11-24T08:06:30.534Z,99444.47
2022-11-24T08:08:59.085Z,99442.72
2022-11-24T08:11:26.261Z,99450.31
2022-11-24T08:13:53.110Z,99453.72
2022-11-24T08:16:20.491Z,99451.94
2022-11-24T08:18:52.393Z,99466.38
2022-11-24T08:21:19.860Z,99466.09
2022-11-24T08:23:47.143Z,99470.38
2022-11-24T08:26:18.891Z,99480.72
2022-11-24T08:28:46.601Z,99473.19
2022-11-24T08:31:16.662Z,99476.78
2022-11-24T08:33:43.446Z,99481.78
2022-11-24T08:36:15.390Z,99487.19
2022-11-24T08:38:42.312Z,99485.13
2022-11-24T08:41:12.628Z,99488.16
2022-11-24T08:43:40.167Z,99494.19
2022-11-24T08:46:09.902Z,99491.03
2022-11-24T08:48:37.280Z,99495.28
2022-11-24T08:51:26.054Z,99496.56
2022-11-24T08:53:58.347Z,99502.25
2022-11-24T08:56:27.376Z,99504.41
2022-11-24T08:58:55.389Z,99505.97
2022-11-24T09:01:22.891Z,99510.22
2022-11-24T09:03:51.515Z,99517.75
2022-11-24T09:06:27.665Z,99520.66
2022-11-24T09:08:55.632Z,99521.16
2022-11-24T09:11:23.122Z,99522.13
2022-11-24T09:13:50.472Z,99521.84
2022-11-24T09:16:19.754Z,99525.84
2022-11-24T09:18:48.314Z,99515.97
2022-11-24T09:21:18.203Z,99517.81
2022-11-24T09:23:48.435Z,99520.66
2022-11-24T09:26:16.553Z,99519.81
2022-11-24T09:28:43.880Z,99524.06
2022-11-24T09:31:13.112Z,99517.97
2022-11-24T09:33:41.022Z,99522.75
2022-11-24T09:36:08.023Z,99520.91
2022-11-24T09:38:34.828Z,99514.03
2022-11-24T09:41:32.362Z,99517.16
2022-11-24T09:44:23.511Z,99514.59
2022-11-24T09:47:02.101Z,99513.75
2022-11-24T09:49:58.973Z,99519.97
2022-11-24T09:53:13.614Z,99525.06
2022-11-24T09:56:21.987Z,99524.19
2022-11-24T09:58:52.003Z,99529.84
2022-11-24T10:01:20.646Z,99525.72
2022-11-24T10:03:54.579Z,99523.31
2022-11-24T10:06:31.123Z,99523.13
2022-11-24T10:09:56.185Z,99525.38
2022-11-24T10:12:31.870Z,99526.44
2022-11-24T10:15:18.860Z,99530.78
2022-11-24T10:17:52.220Z,99532.78
2022-11-24T10:20:30.844Z,99539.22
2022-11-24T10:23:39.727Z,99533.53
2022-11-24T10:26:29.923Z,99534.28
2022-11-24T10:28:57.912Z,99539.47
2022-11-24T10:31:33.186Z,99545.09
2022-11-24T10:34:14.955Z,99540.84
2022-11-24T10:37:10.619Z,99553.53
2022-11-24T10:39:41.454Z,99541.44
2022-11-24T10:42:18.231Z,99548.38
2022-11-24T10:44:45.109Z,99549.91
2022-11-24T10:47:20.534Z,99547.56
2022-11-24T10:49:58.202Z,99549.06
2022-11-24T10:52:26.391Z,99552.69
2022-11-24T10:54:59.232Z,99549.75
2022-11-24T10:57:32.479Z,99546.47
2022-11-24T11:00:00.129Z,99557.59
2022-11-24T11:02:31.745Z,99559.19
2022-11-24T11:04:58.962Z,99563.97
2022-11-24T11:07:26.656Z,99570.78
2022-11-24T11:10:20.604Z,99573.75
2022-11-24T11:12:47.653Z,99573.31
2022-11-24T11:15:26.864Z,99570.28
2022-11-24T11:17:58.536Z,99575.19
2022-11-24T11:20:35.196Z,99567.75
2022-11-24T11:23:14.816Z,99565.97
2022-11-24T11:25:43.616Z,99559.84
2022-11-24T11:28:25.379Z,99562.66
2022-11-24T11:31:21.318Z,99559.19
2022-11-24T11:34:05.298Z,99562.66
2022-11-24T11:36:34.480Z,99561.72
2022-11-24T11:39:03.924Z,99565.97
2022-11-24T11:41:36.025Z,99568.53
2022-11-24T11:44:27.346Z,99567.97
2022-11-24T11:46:58.707Z,99567.59
2022-11-24T11:49:25.801Z,99570.78
2022-11-24T11:52:30.672Z,99571.00
2022-11-24T11:55:46.587Z,99569.25
2022-11-24T11:58:48.548Z,99579.16
2022-11-24T12:01:15.194Z,99584.34
2022-11-24T12:04:04.593Z,99581.72
2022-11-24T12:06:37.093Z,99590.81
2022-11-24T12:09:24.556Z,99591.16
2022-11-24T12:12:20.549Z,99582.75
2022-11-24T12:15:10.589Z,99587.31
2022-11-24T12:18:03.260Z,99586.38
2022-11-24T12:20:36.008Z,99578.25
2022-11-24T12:23:02.705Z,99573.56
2022-11-24T12:25:40.160Z,99579.56
2022-11-24T12:28:37.940Z,99583.91
2022-11-24T12:31:13.605Z,99595.72
2022-11-24T12:34:36.440Z,99598.44
2022-11-24T12:37:21.792Z,99599.88
2022-11-24T12:40:04.095Z,99603.03
2022-11-24T12:42:59.944Z,99602.03
2022-11-24T12:45:45.300Z,99611.03
2022-11-24T12:48:18.060Z,99607.06
2022-11-24T12:50:46.254Z,99613.59
2022-11-24T12:53:12.944Z,99620.25
2022-11-24T12:55:40.983Z,99621.72
2022-11-24T12:58:21.582Z,99625.50
2022-11-24T13:01:04.851Z,99624.06
2022-11-24T13:04:09.204Z,99615.09
2022-11-24T13:06:47.480Z,99627.88
2022-11-24T13:09:16.091Z,99620.59
2022-11-24T13:11:45.793Z,99635.41
2022-11-24T13:14:24.365Z,99635.28
2022-11-24T13:19:44.327Z,99650.69
2022-11-24T13:22:16.810Z,99654.03
2022-11-24T13:24:45.185Z,99657.19
2022-11-24T13:27:26.578Z,99651.56
2022-11-24T13:29:54.060Z,99652.28
2022-11-24T13:32:23.870Z,99653.63
2022-11-24T13:34:54.860Z,99662.69
2022-11-24T13:37:33.758Z,99666.78
2022-11-24T13:40:22.690Z,99674.31
2022-11-24T13:42:56.202Z,99669.53
2022-11-24T13:45:41.807Z,99664.63
2022-11-24T13:48:21.741Z,99681.94
2022-11-24T13:50:53.170Z,99673.38
2022-11-24T13:53:38.243Z,99685.25
2022-11-24T13:56:13.860Z,99690.72
2022-11-24T13:58:43.613Z,99692.88
2022-11-24T14:01:21.794Z,99696.34
2022-11-24T14:06:53.360Z,99699.06
2022-11-24T14:09:36.455Z,99713.06
2022-11-24T14:12:08.568Z,99697.00
2022-11-24T14:14:35.577Z,99705.63
2022-11-24T14:17:15.090Z,99706.78
2022-11-24T14:19:43.785Z,99708.09
2022-11-24T14:22:40.172Z,99712.97
2022-11-24T14:25:20.220Z,99720.44
2022-11-24T14:27:47.036Z,99720.28
2022-11-24T14:30:13.736Z,99716.81
2022-11-24T14:32:42.288Z,99723.28
2022-11-24T14:35:32.069Z,99713.31
2022-11-24T14:38:04.221Z,99722.50
2022-11-24T14:40:40.299Z,99723.47
2022-11-24T14:43:20.283Z,99720.44
2022-11-24T14:46:12.292Z,99717.09
2022-11-24T14:48:40.462Z,99719.50
2022-11-24T14:51:29.377Z,99714.44
2022-11-24T14:54:02.193Z,99731.06
2022-11-24T14:56:37.652Z,99730.25
2022-11-24T14:59:20.569Z,99734.03
2022-11-24T15:01:47.425Z,99741.75
2022-11-24T15:05:01.744Z,99750.59
2022-11-24T15:07:16.563Z,99749.66
2022-11-24T15:10:35.008Z,99743.34
2022-11-24T15:13:05.332Z,99746.69
2022-11-24T15:15:38.844Z,99751.63
2022-11-24T15:18:06.973Z,99749.88
2022-11-24T15:20:35.681Z,99754.47
2022-11-24T15:23:22.976Z,99753.50
2022-11-24T15:25:54.400Z,99758.41
2022-11-24T15:28:25.820Z,99755.66
2022-11-24T15:31:00.023Z,99749.78
2022-11-24T15:33:27.673Z,99760.28
2022-11-24T15:35:54.682Z,99760.81
2022-11-24T15:38:22.505Z,99759.88
2022-11-24T15:40:52.424Z,99760.13
2022-11-24T15:43:39.761Z,99755.06
2022-11-24T15:46:07.799Z,99764.25
2022-11-24T15:48:35.168Z,99761.09
2022-11-24T15:51:05.810Z,99759.78
2022-11-24T15:53:34.380Z,99769.22
2022-11-24T15:56:03.373Z,99770.31
2022-11-24T15:58:30.466Z,99763.66
2022-11-24T16:00:57.469Z,99770.31
2022-11-24T16:03:46.268Z,99781.06
2022-11-24T16:06:22.188Z,99781.06
2022-11-24T16:08:50.456Z,99784.66
2022-11-24T16:11:17.223Z,99785.88
2022-11-24T16:13:50.120Z,99781.06
2022-11-24T16:16:19.787Z,99788.72
2022-11-24T16:18:46.673Z,99794.59
2022-11-24T16:21:13.442Z,99789.53
2022-11-24T16:23:40.216Z,99789.00
2022-11-24T16:26:07.363Z,99783.78
2022-11-24T16:28:34.558Z,99788.84
2022-11-24T16:31:01.642Z,99786.22
2022-11-24T16:33:32.259Z,99787.06
2022-11-24T16:35:59.119Z,99793.72
2022-11-24T16:38:25.986Z,99791.19
2022-11-24T16:40:54.598Z,99798.09
2022-11-24T16:43:21.474Z,99796.31
2022-11-24T16:46:16.362Z,99797.91
2022-11-24T16:48:44.249Z,99799.91
2022-11-24T16:51:11.840Z,99810.84
2022-11-24T16:53:38.781Z,99815.91
2022-11-24T16:56:06.327Z,99814.22
2022-11-24T16:58:33.495Z,99804.19
2022-11-24T17:01:08.531Z,99814.47
2022-11-24T17:03:37.535Z,99811.59
2022-11-24T17:06:09.688Z,99819.19
2022-11-24T17:08:39.365Z,99815.53
2022-11-24T17:11:10.864Z,99814.75
2022-11-24T17:13:39.083Z,99806.97
2022-11-24T17:16:07.567Z,99820.78
2022-11-24T17:18:34.624Z,99815.53
2022-11-24T17:21:07.680Z,99816.56
2022-11-24T17:23:36.116Z,99818.16
2022-11-24T17:26:05.143Z,99817.28
2022-11-24T17:28:32.162Z,99818.66
2022-11-24T17:30:59.114Z,99823.53
2022-11-24T17:33:28.055Z,99823.53
2022-11-24T17:35:54.892Z,99824.25
2022-11-24T17:38:21.888Z,99831.75
2022-11-24T17:40:48.666Z,99826.69
2022-11-24T17:43:15.559Z,99825.81
2022-11-24T17:45:42.472Z,99835.13
2022-11-24T17:48:09.212Z,99832.91
2022-11-24T17:50:36.059Z,99837.34
2022-11-24T17:53:02.879Z,99837.25
2022-11-24T17:55:29.675Z,99836.38
2022-11-24T17:57:56.817Z,99831.13
2022-11-24T18:00:24.111Z,99838.72
2022-11-24T18:02:50.928Z,99836.09
2022-11-24T18:05:17.825Z,99848.75
2022-11-24T18:07:44.643Z,99847.78
2022-11-24T18:10:11.663Z,99855.47
2022-11-24T18:12:39.898Z,99860.53
2022-11-24T18:15:07.203Z,99855.28
2022-11-24T18:17:34.051Z,99859.47
2022-11-24T18:20:00.878Z,99856.00
2022-11-24T18:22:49.858Z,99861.72
2022-11-24T18:25:14.688Z,99858.44
2022-11-24T18:27:41.849Z,99860.19
2022-11-24T18:30:09.221Z,99870.84
2022-11-24T18:32:36.095Z,99863.69
2022-11-24T18:35:02.940Z,99858.34
2022-11-24T18:37:33.974Z,99856.44
2022-11-24T18:40:00.966Z,99858.97
2022-11-24T18:42:30.180Z,99870.84
2022-11-24T18:44:57.477Z,99871.00
2022-11-24T18:47:24.340Z,99865.94
2022-11-24T18:50:08.780Z,99871.19
2022-11-24T18:52:35.461Z,99871.44
2022-11-24T18:55:04.046Z,99867.16
2022-11-24T18:57:33.970Z,99868.75
2022-11-24T19:00:00.881Z,99866.22
2022-11-24T19:02:27.693Z,99871.28
2022-11-24T19:04:54.619Z,99866.22
2022-11-24T19:07:21.498Z,99877.09
2022-11-24T19:09:48.469Z,99880.44
2022-11-24T19:12:15.275Z,99890.53
2022-11-24T19:14:42.071Z,99887.22
2022-11-24T19:17:08.915Z,99891.50
2022-11-24T19:19:36.015Z,99879.63
2022-11-24T19:22:03.672Z,99890.53
2022-11-24T19:24:30.404Z,99883.72
2022-11-24T19:26:57.526Z,99884.69
2022-11-24T19:29:24.318Z,99884.78
2022-11-24T19:31:51.234Z,99882.16
2022-11-24T19:34:18.288Z,99886.25
2022-11-24T19:36:45.009Z,99889.66
2022-11-24T19:39:15.393Z,99888.97
2022-11-24T19:41:42.303Z,99887.22
2022-11-24T19:44:12.914Z,99884.06
2022-11-24T19:46:40.706Z,99883.72
2022-11-24T19:49:10.487Z,99884.78
2022-11-24T19:51:39.096Z,99885.13
2022-11-24T19:54:08.156Z,99884.66
2022-11-24T19:56:37.083Z,99885.34
2022-11-24T19:59:06.212Z,99892.16
2022-11-24T20:01:39.608Z,99890.25
2022-11-24T20:04:18.511Z,99895.88
2022-11-24T20:06:47.188Z,99887.19
2022-11-24T20:09:16.734Z,99889.72
2022-11-24T20:11:43.963Z,99894.56
2022-11-24T20:14:15.362Z,99889.72
2022-11-24T20:16:42.466Z,99888.91
2022-11-24T20:19:14.560Z,99897.66
2022-11-24T20:21:46.146Z,99890.06
2022-11-24T20:24:15.993Z,99892.59
2022-11-24T20:26:46.285Z,99893.72
2022-11-24T20:29:14.750Z,99891.31
2022-11-24T20:31:47.679Z,99893.03
2022-11-24T20:34:14.786Z,99891.63
2022-11-24T20:36:43.538Z,99893.34
2022-11-24T20:39:15.376Z,99893.34
2022-11-24T20:41:42.175Z,99901.66
2022-11-24T20:44:13.694Z,99907.78
2022-11-24T20:46:42.146Z,99904.63
2022-11-24T20:49:13.091Z,99906.38
2022-11-24T20:51:43.818Z,99913.78
2022-11-24T20:54:13.123Z,99915.56
2022-11-24T20:56:42.082Z,99919.72
2022-11-24T20:59:12.312Z,99920.63
2022-11-24T21:01:42.537Z,99918.53
2022-11-24T21:04:12.454Z,99919.38
2022-11-24T21:06:39.982Z,99924.28
2022-11-24T21:09:08.525Z,99922.88
2022-11-24T21:11:36.431Z,99929.19
2022-11-24T21:14:03.612Z,99931.47
2022-11-24T21:16:32.833Z,99931.28
2022-11-24T21:19:11.462Z,99940.25
2022-11-24T21:21:39.816Z,99947.84
2022-11-24T21:24:11.575Z,99938.06
2022-11-24T21:26:39.608Z,99945.00
2022-11-24T21:29:06.865Z,99940.38
2022-11-24T21:31:37.619Z,99948.75
2022-11-24T21:34:05.933Z,99952.38
2022-11-24T21:36:34.922Z,99949.41
2022-11-24T21:39:03.390Z,99944.34
2022-11-24T21:41:32.966Z,99956.41
2022-11-24T21:44:00.276Z,99955.03
2022-11-24T21:46:29.545Z,99958.50
2022-11-24T21:48:56.269Z,99958.25
2022-11-24T21:51:23.224Z,99959.88
2022-11-24T21:53:50.070Z,99961.78
2022-11-24T21:56:19.402Z,99962.72
2022-11-24T21:58:47.743Z,99960.63
2022-11-24T22:01:16.067Z,99965.34
2022-11-24T22:03:43.111Z,99956.94
2022-11-24T22:06:10.284Z,99959.03
2022-11-24T22:08:37.571Z,99961.47
2022-11-24T22:11:11.573Z,99964.19
2022-11-24T22:13:38.881Z,99965.56
2022-11-24T22:16:08.515Z,99959.53
2022-11-24T22:18:40.321Z,99964.59
2022-11-24T22:21:10.209Z,99966.16
2022-11-24T22:23:37.064Z,99962.28
2022-11-24T22:26:05.969Z,99969.47
2022-11-24T22:28:34.192Z,99969.84
2022-11-24T22:31:07.801Z,99973.34
2022-11-24T22:33:34.805Z,99967.75
2022-11-24T22:36:02.253Z,99971.53
2022-11-24T22:38:30.190Z,99977.66
2022-11-24T22:41:05.149Z,99974.34
2022-11-24T22:43:33.548Z,99968.72
2022-11-24T22:46:08.749Z,99973.97
2022-11-24T22:48:35.615Z,99978.50
2022-11-24T22:51:19.275Z,99980.41
2022-11-24T22:53:51.078Z,99979.59
2022-11-24T22:56:17.750Z,99982.44
2022-11-24T22:58:44.558Z,99982.88
2022-11-24T23:01:13.684Z,99985.59
2022-11-24T23:03:41.431Z,99988.53
2022-11-24T23:06:20.316Z,99982.50
2022-11-24T23:08:47.627Z,99981.34
2022-11-24T23:11:18.011Z,99986.41
2022-11-24T23:13:45.079Z,99985.94
2022-11-24T23:16:14.518Z,99986.72
2022-11-24T23:18:41.906Z,99985.16
2022-11-24T23:21:12.039Z,99990.94
2022-11-24T23:23:40.143Z,99991.50
2022-11-24T23:26:11.923Z,99982.84
2022-11-24T23:28:39.816Z,99993.47
2022-11-24T23:31:16.522Z,99993.34
2022-11-24T23:33:43.615Z,99995.47
2022-11-24T23:36:16.286Z,100003.75
2022-11-24T23:38:44.382Z,100006.41
2022-11-24T23:41:13.693Z,99999.09
2022-11-24T23:43:41.816Z,100004.94
2022-11-24T23:46:12.913Z,100005.53
2022-11-24T23:48:40.307Z,100007.69
2022-11-24T23:51:13.350Z,100006.91
2022-11-24T23:53:40.568Z,100008.44
2022-11-24T23:56:08.578Z,100011.78
2022-11-24T23:58:35.412Z,100015.28
